sensor_id;sensor_type;location;lat;lon;timestamp;P1;durP1;ratioP1;P2;durP2;ratioP2
30243;SDS011;61465;53.652;9.792;2022-08-19T00:01:30;24.48;;;13.82;;
30243;SDS011;61465;53.652;9.792;2022-08-19T00:03:59;20.73;;;13.30;;
30243;SDS011;61465;53.652;9.792;2022-08-19T00:06:28;19.98;;;13.23;;
30243;SDS011;61465;53.652;9.792;2022-08-19T00:08:54;24.08;;;14.57;;
30243;SDS011;61465;53.652;9.792;2022-08-19T00:11:20;27.83;;;14.13;;
30243;SDS011;61465;53.652;9.792;2022-08-19T00:13:46;24.60;;;13.73;;
30243;SDS011;61465;53.652;9.792;2022-08-19T00:16:15;27.50;;;14.55;;
30243;SDS011;61465;53.652;9.792;2022-08-19T00:18:44;25.83;;;14.63;;
30243;SDS011;61465;53.652;9.792;2022-08-19T00:21:09;22.50;;;13.30;;
30243;SDS011;61465;53.652;9.792;2022-08-19T00:23:35;23.50;;;13.57;;
30243;SDS011;61465;53.652;9.792;2022-08-19T00:26:04;20.50;;;13.27;;
30243;SDS011;61465;53.652;9.792;2022-08-19T00:28:31;19.70;;;12.10;;
30243;SDS011;61465;53.652;9.792;2022-08-19T00:30:58;22.95;;;12.45;;
30243;SDS011;61465;53.652;9.792;2022-08-19T00:33:24;19.92;;;12.60;;
30243;SDS011;61465;53.652;9.792;2022-08-19T00:35:50;20.17;;;12.97;;
30243;SDS011;61465;53.652;9.792;2022-08-19T00:38:16;21.87;;;13.17;;
30243;SDS011;61465;53.652;9.792;2022-08-19T00:40:42;19.50;;;12.17;;
30243;SDS011;61465;53.652;9.792;2022-08-19T00:43:11;19.52;;;12.57;;
30243;SDS011;61465;53.652;9.792;2022-08-19T00:45:38;22.85;;;13.88;;
30243;SDS011;61465;53.652;9.792;2022-08-19T00:48:07;18.83;;;12.43;;
30243;SDS011;61465;53.652;9.792;2022-08-19T00:50:33;23.08;;;13.20;;
30243;SDS011;61465;53.652;9.792;2022-08-19T00:52:59;25.90;;;14.20;;
30243;SDS011;61465;53.652;9.792;2022-08-19T00:55:29;32.20;;;15.20;;
30243;SDS011;61465;53.652;9.792;2022-08-19T00:58:02;30.38;;;15.57;;
30243;SDS011;61465;53.652;9.792;2022-08-19T01:00:33;25.30;;;14.18;;
30243;SDS011;61465;53.652;9.792;2022-08-19T01:03:10;33.83;;;16.65;;
30243;SDS011;61465;53.652;9.792;2022-08-19T01:05:36;31.83;;;16.15;;
30243;SDS011;61465;53.652;9.792;2022-08-19T01:08:04;36.33;;;16.45;;
30243;SDS011;61465;53.652;9.792;2022-08-19T01:10:33;27.38;;;15.45;;
30243;SDS011;61465;53.652;9.792;2022-08-19T01:13:02;28.92;;;15.15;;
30243;SDS011;61465;53.652;9.792;2022-08-19T01:15:30;32.28;;;16.25;;
30243;SDS011;61465;53.652;9.792;2022-08-19T01:18:04;34.88;;;16.80;;
30243;SDS011;61465;53.652;9.792;2022-08-19T01:20:31;37.53;;;16.58;;
30243;SDS011;61465;53.652;9.792;2022-08-19T01:22:59;34.83;;;16.60;;
30243;SDS011;61465;53.652;9.792;2022-08-19T01:25:28;31.77;;;15.50;;
30243;SDS011;61465;53.652;9.792;2022-08-19T01:27:57;34.58;;;15.80;;
30243;SDS011;61465;53.652;9.792;2022-08-19T01:30:24;35.17;;;15.50;;
30243;SDS011;61465;53.652;9.792;2022-08-19T01:32:52;35.17;;;16.27;;
30243;SDS011;61465;53.652;9.792;2022-08-19T01:35:18;32.13;;;14.93;;
30243;SDS011;61465;53.652;9.792;2022-08-19T01:37:56;34.50;;;15.25;;
30243;SDS011;61465;53.652;9.792;2022-08-19T01:40:25;29.00;;;14.85;;
30243;SDS011;61465;53.652;9.792;2022-08-19T01:42:54;35.13;;;16.33;;
30243;SDS011;61465;53.652;9.792;2022-08-19T01:45:20;32.40;;;15.53;;
30243;SDS011;61465;53.652;9.792;2022-08-19T01:47:47;42.83;;;17.27;;
30243;SDS011;61465;53.652;9.792;2022-08-19T01:50:13;35.63;;;16.83;;
30243;SDS011;61465;53.652;9.792;2022-08-19T01:52:39;39.30;;;16.83;;
30243;SDS011;61465;53.652;9.792;2022-08-19T01:55:07;45.30;;;17.90;;
30243;SDS011;61465;53.652;9.792;2022-08-19T01:57:34;40.28;;;17.38;;
30243;SDS011;61465;53.652;9.792;2022-08-19T02:00:00;41.88;;;17.38;;
30243;SDS011;61465;53.652;9.792;2022-08-19T02:02:30;47.25;;;18.20;;
30243;SDS011;61465;53.652;9.792;2022-08-19T02:04:55;46.10;;;17.13;;
30243;SDS011;61465;53.652;9.792;2022-08-19T02:07:21;40.10;;;18.13;;
30243;SDS011;61465;53.652;9.792;2022-08-19T02:09:47;45.43;;;18.57;;
30243;SDS011;61465;53.652;9.792;2022-08-19T02:12:13;48.42;;;18.23;;
30243;SDS011;61465;53.652;9.792;2022-08-19T02:14:39;54.58;;;20.08;;
30243;SDS011;61465;53.652;9.792;2022-08-19T02:17:05;51.83;;;19.97;;
30243;SDS011;61465;53.652;9.792;2022-08-19T02:19:31;49.77;;;19.30;;
30243;SDS011;61465;53.652;9.792;2022-08-19T02:21:57;52.75;;;20.17;;
30243;SDS011;61465;53.652;9.792;2022-08-19T02:24:23;48.58;;;20.00;;
30243;SDS011;61465;53.652;9.792;2022-08-19T02:26:49;58.47;;;21.03;;
30243;SDS011;61465;53.652;9.792;2022-08-19T02:29:15;59.47;;;20.27;;
30243;SDS011;61465;53.652;9.792;2022-08-19T02:31:40;53.70;;;20.27;;
30243;SDS011;61465;53.652;9.792;2022-08-19T02:34:06;64.07;;;22.03;;
30243;SDS011;61465;53.652;9.792;2022-08-19T02:36:31;61.23;;;20.77;;
30243;SDS011;61465;53.652;9.792;2022-08-19T02:38:57;60.60;;;22.20;;
30243;SDS011;61465;53.652;9.792;2022-08-19T02:41:24;64.13;;;22.13;;
30243;SDS011;61465;53.652;9.792;2022-08-19T02:43:51;47.60;;;19.25;;
30243;SDS011;61465;53.652;9.792;2022-08-19T02:46:19;52.87;;;19.83;;
30243;SDS011;61465;53.652;9.792;2022-08-19T02:48:54;59.45;;;18.98;;
30243;SDS011;61465;53.652;9.792;2022-08-19T02:51:25;51.58;;;18.73;;
30243;SDS011;61465;53.652;9.792;2022-08-19T02:53:59;45.55;;;18.55;;
30243;SDS011;61465;53.652;9.792;2022-08-19T02:56:25;42.60;;;17.53;;
30243;SDS011;61465;53.652;9.792;2022-08-19T02:58:52;42.65;;;16.70;;
30243;SDS011;61465;53.652;9.792;2022-08-19T03:01:27;40.90;;;15.88;;
30243;SDS011;61465;53.652;9.792;2022-08-19T03:03:58;41.92;;;16.27;;
30243;SDS011;61465;53.652;9.792;2022-08-19T03:06:25;44.05;;;17.77;;
30243;SDS011;61465;53.652;9.792;2022-08-19T03:08:51;38.92;;;16.17;;
30243;SDS011;61465;53.652;9.792;2022-08-19T03:11:20;41.00;;;15.85;;
30243;SDS011;61465;53.652;9.792;2022-08-19T03:13:49;38.03;;;15.10;;
30243;SDS011;61465;53.652;9.792;2022-08-19T03:16:16;41.78;;;16.88;;
30243;SDS011;61465;53.652;9.792;2022-08-19T03:18:43;39.22;;;16.98;;
30243;SDS011;61465;53.652;9.792;2022-08-19T03:21:09;46.40;;;18.00;;
30243;SDS011;61465;53.652;9.792;2022-08-19T03:23:39;45.72;;;17.10;;
30243;SDS011;61465;53.652;9.792;2022-08-19T03:26:05;47.00;;;16.93;;
30243;SDS011;61465;53.652;9.792;2022-08-19T03:28:31;51.43;;;17.43;;
30243;SDS011;61465;53.652;9.792;2022-08-19T03:31:01;44.90;;;17.33;;
30243;SDS011;61465;53.652;9.792;2022-08-19T03:33:33;41.40;;;16.77;;
30243;SDS011;61465;53.652;9.792;2022-08-19T03:36:00;51.80;;;17.25;;
30243;SDS011;61465;53.652;9.792;2022-08-19T03:38:27;39.05;;;17.88;;
30243;SDS011;61465;53.652;9.792;2022-08-19T03:40:53;46.42;;;18.35;;
30243;SDS011;61465;53.652;9.792;2022-08-19T03:43:19;57.03;;;21.30;;
30243;SDS011;61465;53.652;9.792;2022-08-19T03:45:44;53.47;;;21.33;;
30243;SDS011;61465;53.652;9.792;2022-08-19T03:48:10;56.17;;;22.47;;
30243;SDS011;61465;53.652;9.792;2022-08-19T03:50:39;60.03;;;21.93;;
30243;SDS011;61465;53.652;9.792;2022-08-19T03:53:05;60.95;;;21.48;;
30243;SDS011;61465;53.652;9.792;2022-08-19T03:55:32;54.42;;;22.17;;
30243;SDS011;61465;53.652;9.792;2022-08-19T03:57:57;48.57;;;21.53;;
30243;SDS011;61465;53.652;9.792;2022-08-19T04:00:24;52.47;;;21.60;;
30243;SDS011;61465;53.652;9.792;2022-08-19T04:02:49;49.53;;;20.35;;
30243;SDS011;61465;53.652;9.792;2022-08-19T04:05:15;48.37;;;23.00;;
30243;SDS011;61465;53.652;9.792;2022-08-19T04:07:41;52.00;;;21.17;;
30243;SDS011;61465;53.652;9.792;2022-08-19T04:10:06;51.93;;;21.03;;
30243;SDS011;61465;53.652;9.792;2022-08-19T04:12:32;54.37;;;21.20;;
30243;SDS011;61465;53.652;9.792;2022-08-19T04:14:57;44.08;;;20.88;;
30243;SDS011;61465;53.652;9.792;2022-08-19T04:17:23;42.73;;;20.63;;
30243;SDS011;61465;53.652;9.792;2022-08-19T04:19:49;40.07;;;21.27;;
30243;SDS011;61465;53.652;9.792;2022-08-19T04:22:14;43.40;;;21.17;;
30243;SDS011;61465;53.652;9.792;2022-08-19T04:24:40;43.07;;;18.57;;
30243;SDS011;61465;53.652;9.792;2022-08-19T04:27:06;39.88;;;18.77;;
30243;SDS011;61465;53.652;9.792;2022-08-19T04:29:31;38.53;;;17.37;;
30243;SDS011;61465;53.652;9.792;2022-08-19T04:31:57;35.03;;;17.35;;
30243;SDS011;61465;53.652;9.792;2022-08-19T04:34:24;34.97;;;16.53;;
30243;SDS011;61465;53.652;9.792;2022-08-19T04:36:52;32.45;;;17.92;;
30243;SDS011;61465;53.652;9.792;2022-08-19T04:39:21;44.80;;;23.15;;
30243;SDS011;61465;53.652;9.792;2022-08-19T04:42:09;35.55;;;14.38;;
30243;SDS011;61465;53.652;9.792;2022-08-19T04:44:53;26.98;;;13.77;;
30243;SDS011;61465;53.652;9.792;2022-08-19T04:47:23;29.67;;;15.35;;
30243;SDS011;61465;53.652;9.792;2022-08-19T04:49:49;22.33;;;13.13;;
30243;SDS011;61465;53.652;9.792;2022-08-19T04:52:15;22.37;;;13.33;;
30243;SDS011;61465;53.652;9.792;2022-08-19T04:54:40;27.75;;;14.10;;
30243;SDS011;61465;53.652;9.792;2022-08-19T04:57:07;22.33;;;13.13;;
30243;SDS011;61465;53.652;9.792;2022-08-19T04:59:33;22.98;;;11.88;;
30243;SDS011;61465;53.652;9.792;2022-08-19T05:01:59;27.15;;;12.85;;
30243;SDS011;61465;53.652;9.792;2022-08-19T05:04:25;20.37;;;11.23;;
30243;SDS011;61465;53.652;9.792;2022-08-19T05:06:51;24.23;;;13.33;;
30243;SDS011;61465;53.652;9.792;2022-08-19T05:09:18;25.17;;;13.18;;
30243;SDS011;61465;53.652;9.792;2022-08-19T05:11:44;27.77;;;13.55;;
30243;SDS011;61465;53.652;9.792;2022-08-19T05:14:10;23.37;;;11.17;;
30243;SDS011;61465;53.652;9.792;2022-08-19T05:16:37;22.77;;;12.30;;
30243;SDS011;61465;53.652;9.792;2022-08-19T05:19:03;24.00;;;12.03;;
30243;SDS011;61465;53.652;9.792;2022-08-19T05:21:47;25.10;;;11.68;;
30243;SDS011;61465;53.652;9.792;2022-08-19T05:24:31;21.65;;;11.23;;
30243;SDS011;61465;53.652;9.792;2022-08-19T05:26:59;21.88;;;11.40;;
30243;SDS011;61465;53.652;9.792;2022-08-19T05:29:27;27.13;;;12.75;;
30243;SDS011;61465;53.652;9.792;2022-08-19T05:31:54;25.70;;;11.80;;
30243;SDS011;61465;53.652;9.792;2022-08-19T05:34:22;19.77;;;12.35;;
30243;SDS011;61465;53.652;9.792;2022-08-19T05:36:50;26.58;;;14.63;;
30243;SDS011;61465;53.652;9.792;2022-08-19T05:39:20;29.48;;;16.27;;
30243;SDS011;61465;53.652;9.792;2022-08-19T05:41:50;21.45;;;12.63;;
30243;SDS011;61465;53.652;9.792;2022-08-19T05:44:19;28.25;;;13.18;;
30243;SDS011;61465;53.652;9.792;2022-08-19T05:46:48;21.17;;;11.65;;
30243;SDS011;61465;53.652;9.792;2022-08-19T05:49:17;23.10;;;12.05;;
30243;SDS011;61465;53.652;9.792;2022-08-19T05:51:46;21.70;;;12.77;;
30243;SDS011;61465;53.652;9.792;2022-08-19T05:54:11;24.00;;;12.43;;
30243;SDS011;61465;53.652;9.792;2022-08-19T05:56:38;24.30;;;12.88;;
30243;SDS011;61465;53.652;9.792;2022-08-19T05:59:08;25.13;;;12.32;;
30243;SDS011;61465;53.652;9.792;2022-08-19T06:01:37;25.83;;;13.55;;
30243;SDS011;61465;53.652;9.792;2022-08-19T06:04:04;24.95;;;13.15;;
30243;SDS011;61465;53.652;9.792;2022-08-19T06:08:58;32.92;;;13.15;;
30243;SDS011;61465;53.652;9.792;2022-08-19T06:14:00;25.05;;;12.20;;
30243;SDS011;61465;53.652;9.792;2022-08-19T06:16:33;24.30;;;13.23;;
30243;SDS011;61465;53.652;9.792;2022-08-19T06:19:01;25.10;;;13.27;;
30243;SDS011;61465;53.652;9.792;2022-08-19T06:21:29;23.67;;;13.60;;
30243;SDS011;61465;53.652;9.792;2022-08-19T06:23:55;25.88;;;14.50;;
30243;SDS011;61465;53.652;9.792;2022-08-19T06:26:22;23.85;;;13.60;;
30243;SDS011;61465;53.652;9.792;2022-08-19T06:28:49;22.67;;;13.45;;
30243;SDS011;61465;53.652;9.792;2022-08-19T06:31:16;24.95;;;13.45;;
30243;SDS011;61465;53.652;9.792;2022-08-19T06:33:44;22.67;;;13.15;;
30243;SDS011;61465;53.652;9.792;2022-08-19T06:36:27;27.17;;;13.48;;
30243;SDS011;61465;53.652;9.792;2022-08-19T06:41:26;21.48;;;13.00;;
30243;SDS011;61465;53.652;9.792;2022-08-19T06:43:53;18.98;;;11.82;;
30243;SDS011;61465;53.652;9.792;2022-08-19T06:46:19;26.55;;;12.77;;
30243;SDS011;61465;53.652;9.792;2022-08-19T06:48:45;22.20;;;11.50;;
30243;SDS011;61465;53.652;9.792;2022-08-19T06:51:12;24.40;;;11.55;;
30243;SDS011;61465;53.652;9.792;2022-08-19T06:53:40;20.58;;;11.15;;
30243;SDS011;61465;53.652;9.792;2022-08-19T06:56:11;15.50;;;10.13;;
30243;SDS011;61465;53.652;9.792;2022-08-19T06:58:37;18.95;;;10.20;;
30243;SDS011;61465;53.652;9.792;2022-08-19T07:01:03;20.13;;;11.43;;
30243;SDS011;61465;53.652;9.792;2022-08-19T07:03:30;15.60;;;9.50;;
30243;SDS011;61465;53.652;9.792;2022-08-19T07:05:58;14.02;;;9.35;;
30243;SDS011;61465;53.652;9.792;2022-08-19T07:08:30;14.35;;;8.27;;
30243;SDS011;61465;53.652;9.792;2022-08-19T07:10:57;15.15;;;7.05;;
30243;SDS011;61465;53.652;9.792;2022-08-19T07:13:23;13.00;;;7.77;;
30243;SDS011;61465;53.652;9.792;2022-08-19T07:15:49;15.27;;;9.50;;
30243;SDS011;61465;53.652;9.792;2022-08-19T07:18:17;19.35;;;9.30;;
30243;SDS011;61465;53.652;9.792;2022-08-19T07:20:46;13.60;;;8.73;;
30243;SDS011;61465;53.652;9.792;2022-08-19T07:23:12;16.43;;;10.23;;
30243;SDS011;61465;53.652;9.792;2022-08-19T07:25:37;17.00;;;9.83;;
30243;SDS011;61465;53.652;9.792;2022-08-19T07:28:03;17.90;;;9.50;;
30243;SDS011;61465;53.652;9.792;2022-08-19T07:30:29;13.43;;;8.20;;
30243;SDS011;61465;53.652;9.792;2022-08-19T07:32:55;14.90;;;8.30;;
30243;SDS011;61465;53.652;9.792;2022-08-19T07:35:21;14.53;;;9.30;;
30243;SDS011;61465;53.652;9.792;2022-08-19T07:37:48;16.92;;;8.98;;
30243;SDS011;61465;53.652;9.792;2022-08-19T07:40:14;15.07;;;8.30;;
30243;SDS011;61465;53.652;9.792;2022-08-19T07:42:42;12.83;;;8.27;;
30243;SDS011;61465;53.652;9.792;2022-08-19T07:45:11;12.63;;;8.10;;
30243;SDS011;61465;53.652;9.792;2022-08-19T07:47:37;12.07;;;7.93;;
30243;SDS011;61465;53.652;9.792;2022-08-19T07:50:03;13.32;;;8.18;;
30243;SDS011;61465;53.652;9.792;2022-08-19T07:52:31;11.55;;;8.40;;
30243;SDS011;61465;53.652;9.792;2022-08-19T07:54:57;19.07;;;8.53;;
30243;SDS011;61465;53.652;9.792;2022-08-19T07:57:24;11.73;;;8.20;;
30243;SDS011;61465;53.652;9.792;2022-08-19T07:59:50;18.77;;;7.67;;
30243;SDS011;61465;53.652;9.792;2022-08-19T08:02:18;14.57;;;8.00;;
30243;SDS011;61465;53.652;9.792;2022-08-19T08:04:44;11.75;;;7.63;;
30243;SDS011;61465;53.652;9.792;2022-08-19T08:07:28;12.55;;;7.97;;
30243;SDS011;61465;53.652;9.792;2022-08-19T08:10:12;12.00;;;8.10;;
30243;SDS011;61465;53.652;9.792;2022-08-19T08:12:39;19.10;;;8.70;;
30243;SDS011;61465;53.652;9.792;2022-08-19T08:15:08;14.52;;;8.32;;
30243;SDS011;61465;53.652;9.792;2022-08-19T08:17:36;13.43;;;7.85;;
30243;SDS011;61465;53.652;9.792;2022-08-19T08:20:04;10.48;;;7.72;;
30243;SDS011;61465;53.652;9.792;2022-08-19T08:22:33;12.00;;;7.40;;
30243;SDS011;61465;53.652;9.792;2022-08-19T08:25:19;14.30;;;8.48;;
30243;SDS011;61465;53.652;9.792;2022-08-19T08:27:47;14.70;;;7.57;;
30243;SDS011;61465;53.652;9.792;2022-08-19T08:30:22;12.88;;;6.95;;
30243;SDS011;61465;53.652;9.792;2022-08-19T08:35:20;17.00;;;7.40;;
30243;SDS011;61465;53.652;9.792;2022-08-19T08:37:47;11.43;;;6.78;;
30243;SDS011;61465;53.652;9.792;2022-08-19T08:40:19;11.55;;;8.20;;
30243;SDS011;61465;53.652;9.792;2022-08-19T08:42:59;14.23;;;8.82;;
30243;SDS011;61465;53.652;9.792;2022-08-19T08:45:33;15.48;;;8.48;;
30243;SDS011;61465;53.652;9.792;2022-08-19T08:48:06;12.65;;;9.07;;
30243;SDS011;61465;53.652;9.792;2022-08-19T08:50:39;16.90;;;9.35;;
30243;SDS011;61465;53.652;9.792;2022-08-19T08:53:07;15.30;;;9.20;;
30243;SDS011;61465;53.652;9.792;2022-08-19T08:55:42;12.20;;;8.98;;
30243;SDS011;61465;53.652;9.792;2022-08-19T08:58:12;18.35;;;9.57;;
30243;SDS011;61465;53.652;9.792;2022-08-19T09:00:43;13.75;;;9.23;;
30243;SDS011;61465;53.652;9.792;2022-08-19T09:03:20;14.40;;;8.32;;
30243;SDS011;61465;53.652;9.792;2022-08-19T09:05:59;16.13;;;9.68;;
30243;SDS011;61465;53.652;9.792;2022-08-19T09:08:45;14.05;;;9.02;;
30243;SDS011;61465;53.652;9.792;2022-08-19T09:14:17;13.35;;;9.13;;
30243;SDS011;61465;53.652;9.792;2022-08-19T09:16:59;18.70;;;9.95;;
30243;SDS011;61465;53.652;9.792;2022-08-19T09:19:28;19.33;;;10.32;;
30243;SDS011;61465;53.652;9.792;2022-08-19T09:21:54;18.87;;;10.90;;
30243;SDS011;61465;53.652;9.792;2022-08-19T09:24:19;22.13;;;10.47;;
30243;SDS011;61465;53.652;9.792;2022-08-19T09:26:45;18.60;;;10.13;;
30243;SDS011;61465;53.652;9.792;2022-08-19T09:29:11;16.57;;;10.57;;
30243;SDS011;61465;53.652;9.792;2022-08-19T09:31:36;16.73;;;12.13;;
30243;SDS011;61465;53.652;9.792;2022-08-19T09:34:03;20.67;;;12.35;;
30243;SDS011;61465;53.652;9.792;2022-08-19T09:36:29;18.27;;;12.45;;
30243;SDS011;61465;53.652;9.792;2022-08-19T09:38:57;22.17;;;13.85;;
30243;SDS011;61465;53.652;9.792;2022-08-19T09:41:25;22.95;;;13.80;;
30243;SDS011;61465;53.652;9.792;2022-08-19T09:43:52;23.35;;;12.88;;
30243;SDS011;61465;53.652;9.792;2022-08-19T09:46:20;24.52;;;14.15;;
30243;SDS011;61465;53.652;9.792;2022-08-19T09:48:47;25.17;;;11.95;;
30243;SDS011;61465;53.652;9.792;2022-08-19T09:51:15;20.70;;;12.90;;
30243;SDS011;61465;53.652;9.792;2022-08-19T09:53:43;23.10;;;12.80;;
30243;SDS011;61465;53.652;9.792;2022-08-19T09:56:10;20.20;;;11.98;;
30243;SDS011;61465;53.652;9.792;2022-08-19T09:58:36;24.45;;;13.35;;
30243;SDS011;61465;53.652;9.792;2022-08-19T10:01:03;21.60;;;12.95;;
30243;SDS011;61465;53.652;9.792;2022-08-19T10:03:30;27.15;;;13.40;;
30243;SDS011;61465;53.652;9.792;2022-08-19T10:05:57;19.60;;;12.68;;
30243;SDS011;61465;53.652;9.792;2022-08-19T10:08:25;27.55;;;13.60;;
30243;SDS011;61465;53.652;9.792;2022-08-19T10:10:57;21.30;;;12.57;;
30243;SDS011;61465;53.652;9.792;2022-08-19T10:13:24;25.73;;;13.87;;
30243;SDS011;61465;53.652;9.792;2022-08-19T10:15:52;26.38;;;14.02;;
30243;SDS011;61465;53.652;9.792;2022-08-19T10:18:22;19.35;;;12.93;;
30243;SDS011;61465;53.652;9.792;2022-08-19T10:20:49;24.23;;;14.40;;
30243;SDS011;61465;53.652;9.792;2022-08-19T10:25:42;32.65;;;12.63;;
30243;SDS011;61465;53.652;9.792;2022-08-19T10:28:09;25.58;;;14.25;;
30243;SDS011;61465;53.652;9.792;2022-08-19T10:30:37;24.80;;;13.23;;
30243;SDS011;61465;53.652;9.792;2022-08-19T10:33:03;25.50;;;13.55;;
30243;SDS011;61465;53.652;9.792;2022-08-19T10:35:29;22.75;;;12.48;;
30243;SDS011;61465;53.652;9.792;2022-08-19T10:37:55;22.83;;;13.57;;
30243;SDS011;61465;53.652;9.792;2022-08-19T10:40:24;27.85;;;13.45;;
30243;SDS011;61465;53.652;9.792;2022-08-19T10:42:51;26.15;;;13.30;;
30243;SDS011;61465;53.652;9.792;2022-08-19T10:45:16;23.93;;;12.47;;
30243;SDS011;61465;53.652;9.792;2022-08-19T10:47:42;28.40;;;12.83;;
30243;SDS011;61465;53.652;9.792;2022-08-19T10:50:07;17.37;;;11.23;;
30243;SDS011;61465;53.652;9.792;2022-08-19T10:52:52;22.20;;;12.52;;
30243;SDS011;61465;53.652;9.792;2022-08-19T10:55:18;18.23;;;11.20;;
30243;SDS011;61465;53.652;9.792;2022-08-19T10:58:09;20.73;;;12.02;;
30243;SDS011;61465;53.652;9.792;2022-08-19T11:00:36;20.95;;;12.07;;
30243;SDS011;61465;53.652;9.792;2022-08-19T11:03:02;19.90;;;13.60;;
30243;SDS011;61465;53.652;9.792;2022-08-19T11:05:27;20.93;;;11.90;;
30243;SDS011;61465;53.652;9.792;2022-08-19T11:07:53;19.30;;;12.37;;
30243;SDS011;61465;53.652;9.792;2022-08-19T11:10:18;17.97;;;11.73;;
30243;SDS011;61465;53.652;9.792;2022-08-19T11:12:44;22.23;;;11.53;;
30243;SDS011;61465;53.652;9.792;2022-08-19T11:15:11;20.70;;;10.85;;
30243;SDS011;61465;53.652;9.792;2022-08-19T11:17:37;20.60;;;11.20;;
30243;SDS011;61465;53.652;9.792;2022-08-19T11:20:06;16.73;;;10.93;;
30243;SDS011;61465;53.652;9.792;2022-08-19T11:22:33;16.65;;;11.60;;
30243;SDS011;61465;53.652;9.792;2022-08-19T11:24:59;35.23;;;19.07;;
30243;SDS011;61465;53.652;9.792;2022-08-19T11:27:24;18.07;;;12.43;;
30243;SDS011;61465;53.652;9.792;2022-08-19T11:29:50;15.93;;;11.37;;
30243;SDS011;61465;53.652;9.792;2022-08-19T11:32:17;20.70;;;12.15;;
30243;SDS011;61465;53.652;9.792;2022-08-19T11:34:43;15.33;;;9.87;;
30243;SDS011;61465;53.652;9.792;2022-08-19T11:37:08;19.83;;;12.20;;
30243;SDS011;61465;53.652;9.792;2022-08-19T11:39:34;20.37;;;11.17;;
30243;SDS011;61465;53.652;9.792;2022-08-19T11:42:02;16.75;;;10.88;;
30243;SDS011;61465;53.652;9.792;2022-08-19T11:44:49;15.75;;;11.05;;
30243;SDS011;61465;53.652;9.792;2022-08-19T11:47:15;16.00;;;10.98;;
30243;SDS011;61465;53.652;9.792;2022-08-19T11:49:41;15.35;;;10.75;;
30243;SDS011;61465;53.652;9.792;2022-08-19T11:52:07;17.13;;;11.20;;
30243;SDS011;61465;53.652;9.792;2022-08-19T11:54:34;13.77;;;10.55;;
30243;SDS011;61465;53.652;9.792;2022-08-19T11:57:00;19.03;;;10.87;;
30243;SDS011;61465;53.652;9.792;2022-08-19T11:59:27;16.25;;;10.73;;
30243;SDS011;61465;53.652;9.792;2022-08-19T12:01:54;17.35;;;10.48;;
30243;SDS011;61465;53.652;9.792;2022-08-19T12:04:20;19.52;;;11.70;;
30243;SDS011;61465;53.652;9.792;2022-08-19T12:06:46;18.10;;;10.88;;
30243;SDS011;61465;53.652;9.792;2022-08-19T12:09:12;16.80;;;11.77;;
30243;SDS011;61465;53.652;9.792;2022-08-19T12:11:39;16.33;;;10.30;;
30243;SDS011;61465;53.652;9.792;2022-08-19T12:14:05;15.85;;;10.82;;
30243;SDS011;61465;53.652;9.792;2022-08-19T12:16:32;16.80;;;10.73;;
30243;SDS011;61465;53.652;9.792;2022-08-19T12:18:58;16.30;;;10.68;;
30243;SDS011;61465;53.652;9.792;2022-08-19T12:21:28;17.20;;;11.68;;
30243;SDS011;61465;53.652;9.792;2022-08-19T12:23:55;15.52;;;11.20;;
30243;SDS011;61465;53.652;9.792;2022-08-19T12:26:22;17.30;;;11.68;;
30243;SDS011;61465;53.652;9.792;2022-08-19T12:28:49;15.05;;;11.88;;
30243;SDS011;61465;53.652;9.792;2022-08-19T12:31:15;16.03;;;10.83;;
30243;SDS011;61465;53.652;9.792;2022-08-19T12:33:41;15.70;;;11.52;;
30243;SDS011;61465;53.652;9.792;2022-08-19T12:36:07;20.00;;;11.70;;
30243;SDS011;61465;53.652;9.792;2022-08-19T12:38:35;16.65;;;10.23;;
30243;SDS011;61465;53.652;9.792;2022-08-19T12:41:02;18.00;;;11.55;;
30243;SDS011;61465;53.652;9.792;2022-08-19T12:43:31;18.00;;;10.93;;
30243;SDS011;61465;53.652;9.792;2022-08-19T12:45:57;13.98;;;9.95;;
30243;SDS011;61465;53.652;9.792;2022-08-19T12:48:22;15.07;;;10.73;;
30243;SDS011;61465;53.652;9.792;2022-08-19T12:50:48;12.50;;;9.70;;
30243;SDS011;61465;53.652;9.792;2022-08-19T12:53:14;15.53;;;11.40;;
30243;SDS011;61465;53.652;9.792;2022-08-19T12:55:41;15.18;;;11.05;;
30243;SDS011;61465;53.652;9.792;2022-08-19T12:58:08;16.10;;;11.68;;
30243;SDS011;61465;53.652;9.792;2022-08-19T13:00:34;15.43;;;11.23;;
30243;SDS011;61465;53.652;9.792;2022-08-19T13:03:00;16.15;;;11.20;;
30243;SDS011;61465;53.652;9.792;2022-08-19T13:05:27;19.53;;;11.43;;
30243;SDS011;61465;53.652;9.792;2022-08-19T13:07:55;14.57;;;11.18;;
30243;SDS011;61465;53.652;9.792;2022-08-19T13:10:23;18.45;;;12.98;;
30243;SDS011;61465;53.652;9.792;2022-08-19T13:12:51;16.67;;;12.38;;
30243;SDS011;61465;53.652;9.792;2022-08-19T13:15:18;17.38;;;11.93;;
30243;SDS011;61465;53.652;9.792;2022-08-19T13:17:45;14.18;;;10.50;;
30243;SDS011;61465;53.652;9.792;2022-08-19T13:20:14;18.88;;;12.27;;
30243;SDS011;61465;53.652;9.792;2022-08-19T13:22:41;17.83;;;11.07;;
30243;SDS011;61465;53.652;9.792;2022-08-19T13:25:07;18.20;;;11.38;;
30243;SDS011;61465;53.652;9.792;2022-08-19T13:27:34;16.25;;;12.40;;
30243;SDS011;61465;53.652;9.792;2022-08-19T13:30:00;17.65;;;11.93;;
30243;SDS011;61465;53.652;9.792;2022-08-19T13:32:45;16.80;;;12.75;;
30243;SDS011;61465;53.652;9.792;2022-08-19T13:35:29;18.35;;;12.30;;
30243;SDS011;61465;53.652;9.792;2022-08-19T13:37:55;18.50;;;12.70;;
30243;SDS011;61465;53.652;9.792;2022-08-19T13:40:22;20.20;;;13.33;;
30243;SDS011;61465;53.652;9.792;2022-08-19T13:42:50;16.98;;;12.63;;
30243;SDS011;61465;53.652;9.792;2022-08-19T13:45:18;18.58;;;12.75;;
30243;SDS011;61465;53.652;9.792;2022-08-19T13:47:45;17.33;;;12.27;;
30243;SDS011;61465;53.652;9.792;2022-08-19T13:50:13;17.02;;;11.35;;
30243;SDS011;61465;53.652;9.792;2022-08-19T13:52:41;18.55;;;13.18;;
30243;SDS011;61465;53.652;9.792;2022-08-19T13:55:07;20.23;;;13.75;;
30243;SDS011;61465;53.652;9.792;2022-08-19T13:57:35;17.58;;;12.32;;
30243;SDS011;61465;53.652;9.792;2022-08-19T14:00:04;16.10;;;12.32;;
30243;SDS011;61465;53.652;9.792;2022-08-19T14:02:35;19.25;;;12.43;;
30243;SDS011;61465;53.652;9.792;2022-08-19T14:05:02;19.63;;;12.32;;
30243;SDS011;61465;53.652;9.792;2022-08-19T14:07:29;16.27;;;11.82;;
30243;SDS011;61465;53.652;9.792;2022-08-19T14:09:55;16.40;;;12.13;;
30243;SDS011;61465;53.652;9.792;2022-08-19T14:12:21;15.87;;;11.50;;
30243;SDS011;61465;53.652;9.792;2022-08-19T14:14:47;21.42;;;12.07;;
30243;SDS011;61465;53.652;9.792;2022-08-19T14:17:13;19.52;;;10.68;;
30243;SDS011;61465;53.652;9.792;2022-08-19T14:19:40;15.15;;;10.68;;
30243;SDS011;61465;53.652;9.792;2022-08-19T14:22:06;15.68;;;11.25;;
30243;SDS011;61465;53.652;9.792;2022-08-19T14:24:32;13.90;;;9.63;;
30243;SDS011;61465;53.652;9.792;2022-08-19T14:26:57;14.53;;;9.60;;
30243;SDS011;61465;53.652;9.792;2022-08-19T14:29:24;14.65;;;9.43;;
30243;SDS011;61465;53.652;9.792;2022-08-19T14:31:50;13.55;;;9.75;;
30243;SDS011;61465;53.652;9.792;2022-08-19T14:34:15;14.10;;;9.23;;
30243;SDS011;61465;53.652;9.792;2022-08-19T14:36:41;11.43;;;8.17;;
30243;SDS011;61465;53.652;9.792;2022-08-19T14:39:07;12.30;;;8.73;;
30243;SDS011;61465;53.652;9.792;2022-08-19T14:41:34;15.88;;;9.68;;
30243;SDS011;61465;53.652;9.792;2022-08-19T14:44:00;12.35;;;10.07;;